createdAt,value
2023-01-09T00:01:28.337Z,28.50
2023-01-09T00:03:55.746Z,30.88
2023-01-09T00:06:22.819Z,29.67
2023-01-09T00:08:50.206Z,30.70
2023-01-09T00:11:17.312Z,32.13
2023-01-09T00:13:44.581Z,32.88
2023-01-09T00:16:11.692Z,31.30
2023-01-09T00:18:39.527Z,32.95
2023-01-09T00:21:11.089Z,31.98
2023-01-09T00:23:38.435Z,34.33
2023-01-09T00:26:14.987Z,32.28
2023-01-09T00:28:42.028Z,33.55
2023-01-09T00:31:10.739Z,32.85
2023-01-09T00:34:10.439Z,30.83
2023-01-09T00:36:37.674Z,33.42
2023-01-09T00:39:05.929Z,32.25
2023-01-09T00:41:45.260Z,33.72
2023-01-09T00:44:20.719Z,32.50
2023-01-09T00:46:57.665Z,30.73
2023-01-09T00:49:25.695Z,25.02
2023-01-09T00:51:54.604Z,16.67
2023-01-09T00:54:22.303Z,15.38
2023-01-09T00:56:50.414Z,10.95
2023-01-09T00:59:17.720Z,9.05
2023-01-09T01:01:44.846Z,8.27
2023-01-09T01:04:30.294Z,8.27
2023-01-09T01:07:15.811Z,7.38
2023-01-09T01:09:42.888Z,6.78
2023-01-09T01:12:09.917Z,6.35
2023-01-09T01:14:39.017Z,6.90
2023-01-09T01:17:07.628Z,6.57
2023-01-09T01:19:35.624Z,6.93
2023-01-09T01:22:03.403Z,6.68
2023-01-09T01:24:30.368Z,5.88
2023-01-09T01:26:57.284Z,6.28
2023-01-09T01:29:24.335Z,6.07
2023-01-09T01:31:52.632Z,5.97
2023-01-09T01:34:19.689Z,6.25
2023-01-09T01:36:46.567Z,5.38
2023-01-09T01:39:13.565Z,5.95
2023-01-09T01:41:40.715Z,6.50
2023-01-09T01:44:59.182Z,5.28
2023-01-09T01:47:37.181Z,5.38
2023-01-09T01:50:16.805Z,6.22
2023-01-09T01:52:54.775Z,4.97
2023-01-09T01:55:23.130Z,5.93
2023-01-09T01:58:00.415Z,5.63
2023-01-09T02:00:37.521Z,6.07
2023-01-09T02:03:07.401Z,6.00
2023-01-09T02:05:37.009Z,5.90
2023-01-09T02:08:06.826Z,7.00
2023-01-09T02:10:34.769Z,6.47
2023-01-09T02:13:02.820Z,6.80
2023-01-09T02:15:44.044Z,8.80
2023-01-09T02:18:29.903Z,8.00
2023-01-09T02:21:20.408Z,7.85
2023-01-09T02:24:17.396Z,10.40
2023-01-09T02:27:02.093Z,10.00
2023-01-09T02:30:05.135Z,11.18
2023-01-09T02:33:09.240Z,12.60
2023-01-09T02:36:30.184Z,12.38
2023-01-09T02:39:26.613Z,14.32
2023-01-09T02:42:21.662Z,14.35
2023-01-09T02:44:48.978Z,14.77
2023-01-09T02:47:15.857Z,17.02
2023-01-09T02:50:19.418Z,17.02
2023-01-09T02:53:17.175Z,16.10
2023-01-09T02:56:17.688Z,16.75
2023-01-09T02:59:07.068Z,17.35
2023-01-09T03:01:55.432Z,16.20
2023-01-09T03:05:11.161Z,17.42
2023-01-09T03:07:50.105Z,17.83
2023-01-09T03:10:21.610Z,18.00
2023-01-09T03:12:54.151Z,19.02
2023-01-09T03:15:26.884Z,18.77
2023-01-09T03:17:55.120Z,19.05
2023-01-09T03:20:27.626Z,18.05
2023-01-09T03:23:00.907Z,15.70
2023-01-09T03:25:30.408Z,14.77
2023-01-09T03:28:29.016Z,14.63
2023-01-09T03:30:56.377Z,13.20
2023-01-09T03:33:23.411Z,11.38
2023-01-09T03:35:50.414Z,11.38
2023-01-09T03:38:17.318Z,10.23
2023-01-09T03:40:44.240Z,9.57
2023-01-09T03:43:11.299Z,9.15
2023-01-09T03:45:38.293Z,10.73
2023-01-09T03:48:05.625Z,9.20
2023-01-09T03:50:33.700Z,9.02
2023-01-09T03:53:01.094Z,8.32
2023-01-09T03:55:28.634Z,7.95
2023-01-09T03:57:56.085Z,8.77
2023-01-09T04:00:23.186Z,10.68
2023-01-09T04:02:50.267Z,10.63
2023-01-09T04:05:17.289Z,9.95
2023-01-09T04:07:44.241Z,10.63
2023-01-09T04:10:12.099Z,11.20
2023-01-09T04:12:39.432Z,9.00
2023-01-09T04:15:07.253Z,10.30
2023-01-09T04:17:34.342Z,10.48
2023-01-09T04:20:01.787Z,9.82
2023-01-09T04:22:28.849Z,9.45
2023-01-09T04:24:55.762Z,9.68
2023-01-09T04:27:22.841Z,9.82
2023-01-09T04:29:50.001Z,9.40
2023-01-09T04:32:17.100Z,9.45
2023-01-09T04:34:44.028Z,9.80
2023-01-09T04:37:11.032Z,10.93
2023-01-09T04:39:38.082Z,11.88
2023-01-09T04:42:05.143Z,11.43
2023-01-09T04:44:32.193Z,14.20
2023-01-09T04:46:59.222Z,13.57
2023-01-09T04:49:26.402Z,14.40
2023-01-09T04:51:54.770Z,15.10
2023-01-09T04:54:21.918Z,16.05
2023-01-09T04:56:49.478Z,16.13
2023-01-09T04:59:17.166Z,15.75
2023-01-09T05:01:44.576Z,17.20
2023-01-09T05:04:12.111Z,16.02
2023-01-09T05:06:41.159Z,16.63
2023-01-09T05:09:08.215Z,17.13
2023-01-09T05:11:35.196Z,17.95
2023-01-09T05:14:02.232Z,15.93
2023-01-09T05:16:29.489Z,18.17
2023-01-09T05:18:57.273Z,16.95
2023-01-09T05:21:24.780Z,18.13
2023-01-09T05:23:52.256Z,16.77
2023-01-09T05:26:24.107Z,17.50
2023-01-09T05:28:52.251Z,17.35
2023-01-09T05:31:21.003Z,18.23
2023-01-09T05:33:48.594Z,17.35
2023-01-09T05:36:15.718Z,19.20
2023-01-09T05:38:42.759Z,17.52
2023-01-09T05:41:10.623Z,18.92
2023-01-09T05:43:37.732Z,18.92
2023-01-09T05:46:04.868Z,20.85
2023-01-09T05:48:31.883Z,20.73
2023-01-09T05:50:58.844Z,20.17
2023-01-09T05:53:25.868Z,23.42
2023-01-09T05:55:53.030Z,22.48
2023-01-09T05:58:20.509Z,20.98
2023-01-09T06:00:48.595Z,25.50
2023-01-09T06:03:15.851Z,24.05
2023-01-09T06:05:43.045Z,25.65
2023-01-09T06:08:10.083Z,24.02
2023-01-09T06:10:37.203Z,22.85
2023-01-09T06:13:04.185Z,23.75
2023-01-09T06:15:31.114Z,24.88
2023-01-09T06:17:58.074Z,24.13
2023-01-09T06:20:25.078Z,24.30
2023-01-09T06:22:53.273Z,25.20
2023-01-09T06:25:20.438Z,25.23
2023-01-09T06:27:47.596Z,23.95
2023-01-09T06:30:15.341Z,23.88
2023-01-09T06:32:42.695Z,24.20
2023-01-09T06:35:10.331Z,22.23
2023-01-09T06:37:37.307Z,23.92
2023-01-09T06:40:05.102Z,22.17
2023-01-09T06:42:32.140Z,22.08
2023-01-09T06:44:59.386Z,24.08
2023-01-09T06:47:26.611Z,23.42
2023-01-09T06:49:53.594Z,25.45
2023-01-09T06:52:27.025Z,26.42
2023-01-09T06:54:54.016Z,23.83
2023-01-09T06:57:21.062Z,26.63
2023-01-09T06:59:48.034Z,26.10
2023-01-09T07:02:21.566Z,28.48
2023-01-09T07:04:48.889Z,28.92
2023-01-09T07:07:17.065Z,24.60
2023-01-09T07:09:44.151Z,26.20
2023-01-09T07:12:11.103Z,26.55
2023-01-09T07:14:38.144Z,25.83
2023-01-09T07:17:05.169Z,24.30
2023-01-09T07:19:32.444Z,27.20
2023-01-09T07:21:59.514Z,27.63
2023-01-09T07:24:26.551Z,27.13
2023-01-09T07:26:53.573Z,23.95
2023-01-09T07:29:20.607Z,26.25
2023-01-09T07:31:47.977Z,27.20
2023-01-09T07:34:15.867Z,26.98
2023-01-09T07:36:46.462Z,23.95
2023-01-09T07:39:14.364Z,25.70
2023-01-09T07:41:43.027Z,26.05
2023-01-09T07:44:11.536Z,25.83
2023-01-09T07:46:39.273Z,25.65
2023-01-09T07:49:07.347Z,24.90
2023-01-09T07:51:34.352Z,25.05
2023-01-09T07:54:02.381Z,25.48
2023-01-09T07:56:32.004Z,24.25
2023-01-09T07:58:59.434Z,24.27
2023-01-09T08:01:26.942Z,24.55
2023-01-09T08:03:54.164Z,24.25
2023-01-09T08:06:21.396Z,25.65
2023-01-09T08:08:48.641Z,25.63
2023-01-09T08:11:16.086Z,25.00
2023-01-09T08:13:43.088Z,25.55
2023-01-09T08:16:10.255Z,26.15
2023-01-09T08:18:37.311Z,24.42
2023-01-09T08:21:04.448Z,23.13
2023-01-09T08:23:31.414Z,25.65
2023-01-09T08:25:58.437Z,24.80
2023-01-09T08:28:25.558Z,25.42
2023-01-09T08:30:52.542Z,25.38
2023-01-09T08:33:19.563Z,23.77
2023-01-09T08:35:46.625Z,24.70
2023-01-09T08:38:13.736Z,23.55
2023-01-09T08:40:41.108Z,24.50
2023-01-09T08:43:27.925Z,18.33
2023-01-09T08:46:13.653Z,22.25
2023-01-09T08:48:41.092Z,20.50
2023-01-09T08:51:08.284Z,23.15
2023-01-09T08:53:35.214Z,23.20
2023-01-09T08:56:04.024Z,22.25
2023-01-09T08:58:31.611Z,21.00
2023-01-09T09:00:59.044Z,22.38
2023-01-09T09:03:26.154Z,19.85
2023-01-09T09:05:53.128Z,20.15
2023-01-09T09:08:20.461Z,19.55
2023-01-09T09:10:47.565Z,22.45
2023-01-09T09:13:14.548Z,20.77
2023-01-09T09:15:41.669Z,21.52
2023-01-09T09:18:09.377Z,20.48
2023-01-09T09:20:39.128Z,19.67
2023-01-09T09:23:08.363Z,20.42
2023-01-09T09:25:38.516Z,17.80
2023-01-09T09:28:07.311Z,20.40
2023-01-09T09:30:34.502Z,19.95
2023-01-09T09:33:04.842Z,19.52
2023-01-09T09:35:33.908Z,19.27
2023-01-09T09:38:05.493Z,18.67
2023-01-09T09:41:29.143Z,18.88
2023-01-09T09:44:48.462Z,17.73
2023-01-09T09:47:57.086Z,17.77
2023-01-09T09:51:02.901Z,18.23
2023-01-09T09:53:51.207Z,17.05
2023-01-09T09:56:23.891Z,18.58
2023-01-09T09:58:59.161Z,18.65
2023-01-09T10:01:58.853Z,21.23
2023-01-09T10:04:29.118Z,18.10
2023-01-09T10:07:23.193Z,19.70
2023-01-09T10:09:55.225Z,20.10
2023-01-09T10:12:29.541Z,18.08
2023-01-09T10:15:04.155Z,19.10
2023-01-09T10:18:04.776Z,14.98
2023-01-09T10:20:50.719Z,15.48
2023-01-09T10:23:28.552Z,14.02
2023-01-09T10:26:22.897Z,14.60
2023-01-09T10:29:10.962Z,15.25
2023-01-09T10:32:01.108Z,14.75
2023-01-09T10:34:57.599Z,15.15
2023-01-09T10:37:48.773Z,15.48
2023-01-09T10:40:32.693Z,17.67
2023-01-09T10:43:31.123Z,16.67
2023-01-09T10:46:18.236Z,17.10
2023-01-09T10:48:53.035Z,16.83
2023-01-09T10:51:30.140Z,17.08
2023-01-09T10:53:58.079Z,17.05
2023-01-09T10:56:32.774Z,17.70
2023-01-09T10:59:00.270Z,18.92
2023-01-09T11:01:34.940Z,19.17
2023-01-09T11:04:02.401Z,17.60
2023-01-09T11:06:47.001Z,19.83
2023-01-09T11:11:42.959Z,17.70
2023-01-09T11:14:27.898Z,18.08
2023-01-09T11:16:58.397Z,19.33
2023-01-09T11:19:27.130Z,17.33
2023-01-09T11:22:15.720Z,18.33
2023-01-09T11:24:43.260Z,17.98
2023-01-09T11:27:13.233Z,15.52
2023-01-09T11:29:43.923Z,13.95
2023-01-09T11:32:32.838Z,14.73
2023-01-09T11:35:00.457Z,15.77
2023-01-09T11:37:30.811Z,17.15
2023-01-09T11:40:00.975Z,16.38
2023-01-09T11:42:48.233Z,14.98
2023-01-09T11:45:26.431Z,16.35
2023-01-09T11:47:53.858Z,13.65
2023-01-09T11:50:28.281Z,12.05
2023-01-09T11:53:19.766Z,15.05
2023-01-09T11:56:02.447Z,11.48
2023-01-09T11:58:35.272Z,14.07
2023-01-09T12:01:30.815Z,13.35
2023-01-09T12:04:20.800Z,11.73
2023-01-09T12:07:09.360Z,13.85
2023-01-09T12:09:58.541Z,12.88
2023-01-09T12:12:34.289Z,12.95
2023-01-09T12:15:19.838Z,12.90
2023-01-09T12:18:26.022Z,14.48
2023-01-09T12:21:39.056Z,16.10
2023-01-09T12:24:37.559Z,13.88
2023-01-09T12:27:38.368Z,14.73
2023-01-09T12:30:48.330Z,14.57
2023-01-09T12:33:30.393Z,14.70
2023-01-09T12:36:42.971Z,15.20
2023-01-09T12:39:49.158Z,15.23
2023-01-09T12:42:31.812Z,15.35
2023-01-09T12:45:05.135Z,14.15
2023-01-09T12:47:50.980Z,14.43
2023-01-09T12:50:35.701Z,13.25
2023-01-09T12:53:02.708Z,14.52
2023-01-09T12:55:36.558Z,15.07
2023-01-09T12:58:30.003Z,13.60
2023-01-09T13:01:00.452Z,14.35
2023-01-09T13:03:53.306Z,14.85
2023-01-09T13:06:23.280Z,14.63
2023-01-09T13:09:35.756Z,14.85
2023-01-09T13:12:14.905Z,14.52
2023-01-09T13:14:58.320Z,11.65
2023-01-09T13:17:33.340Z,11.80
2023-01-09T13:20:00.310Z,14.60
2023-01-09T13:22:29.047Z,14.00
2023-01-09T13:25:44.691Z,14.30
2023-01-09T13:28:42.108Z,12.57
2023-01-09T13:32:05.651Z,13.38
2023-01-09T13:34:36.184Z,13.48
2023-01-09T13:37:03.775Z,15.23
2023-01-09T13:39:35.221Z,15.30
2023-01-09T13:42:25.905Z,14.98
2023-01-09T13:44:56.048Z,14.30
2023-01-09T13:47:30.797Z,15.50
2023-01-09T13:50:11.538Z,15.10
2023-01-09T13:52:43.415Z,13.07
2023-01-09T13:55:18.153Z,13.43
2023-01-09T13:58:08.246Z,13.20
2023-01-09T14:00:35.507Z,14.35
2023-01-09T14:03:08.703Z,13.73
2023-01-09T14:05:55.909Z,13.07
2023-01-09T14:08:28.073Z,14.40
2023-01-09T14:10:59.822Z,15.63
2023-01-09T14:13:31.852Z,14.00
2023-01-09T14:16:09.994Z,15.23
2023-01-09T14:18:45.485Z,15.32
2023-01-09T14:21:13.251Z,14.52
2023-01-09T14:24:05.276Z,14.35
2023-01-09T14:26:49.599Z,16.10
2023-01-09T14:29:29.318Z,13.60
2023-01-09T14:32:21.214Z,15.32
2023-01-09T14:34:54.422Z,14.90
2023-01-09T14:37:21.841Z,13.18
2023-01-09T14:39:51.301Z,13.52
2023-01-09T14:42:24.957Z,14.45
2023-01-09T14:45:03.571Z,13.25
2023-01-09T14:47:40.581Z,14.60
2023-01-09T14:50:34.096Z,15.07
2023-01-09T14:53:04.800Z,15.23
2023-01-09T14:55:50.633Z,16.08
2023-01-09T14:58:31.374Z,15.07
2023-01-09T15:01:06.932Z,15.48
2023-01-09T15:03:59.092Z,15.47
2023-01-09T15:06:34.947Z,15.90
2023-01-09T15:09:17.134Z,17.25
2023-01-09T15:11:44.629Z,17.08
2023-01-09T15:14:38.123Z,19.05
2023-01-09T15:17:05.409Z,19.85
2023-01-09T15:19:33.631Z,19.70
2023-01-09T15:22:07.389Z,18.27
2023-01-09T15:24:35.213Z,19.83
2023-01-09T15:27:15.698Z,18.05
2023-01-09T15:29:42.889Z,19.58
2023-01-09T15:32:28.694Z,20.02
2023-01-09T15:34:57.125Z,20.63
2023-01-09T15:37:33.824Z,21.52
2023-01-09T15:40:04.520Z,19.60
2023-01-09T15:42:57.513Z,20.98
2023-01-09T15:45:40.593Z,19.33
2023-01-09T15:48:32.126Z,18.83
2023-01-09T15:51:26.352Z,20.20
2023-01-09T15:53:54.769Z,16.95
2023-01-09T15:56:30.507Z,18.25
2023-01-09T15:59:01.277Z,17.83
2023-01-09T16:01:38.473Z,16.52
2023-01-09T16:04:13.963Z,18.58
2023-01-09T16:06:52.669Z,18.88
2023-01-09T16:09:29.611Z,19.60
2023-01-09T16:12:04.722Z,19.30
2023-01-09T16:14:41.964Z,17.77
2023-01-09T16:17:16.420Z,18.52
2023-01-09T16:19:58.942Z,19.08
2023-01-09T16:22:35.916Z,18.00
2023-01-09T16:25:37.110Z,18.02
2023-01-09T16:30:55.196Z,15.82
2023-01-09T16:33:28.581Z,18.05
2023-01-09T16:35:58.734Z,17.33
2023-01-09T16:38:27.380Z,16.30
2023-01-09T16:41:25.628Z,19.15
2023-01-09T16:43:52.899Z,19.08
2023-01-09T16:46:21.584Z,16.70
2023-01-09T16:48:48.975Z,15.98
2023-01-09T16:51:22.143Z,15.73
2023-01-09T16:53:50.216Z,18.40
2023-01-09T16:56:30.675Z,15.80
2023-01-09T16:58:59.484Z,16.25
2023-01-09T17:01:26.591Z,18.55
2023-01-09T17:03:53.749Z,18.48
2023-01-09T17:06:30.934Z,20.55
2023-01-09T17:08:58.463Z,18.48
2023-01-09T17:11:32.069Z,17.20
2023-01-09T17:14:03.877Z,18.33
2023-01-09T17:16:31.001Z,17.02
2023-01-09T17:18:57.917Z,17.98
2023-01-09T17:21:29.022Z,16.83
2023-01-09T17:24:15.004Z,16.15
2023-01-09T17:27:08.212Z,16.05
2023-01-09T17:29:35.536Z,15.05
2023-01-09T17:32:02.770Z,17.10
2023-01-09T17:34:29.778Z,16.48
2023-01-09T17:36:56.780Z,15.43
2023-01-09T17:39:24.039Z,14.25
2023-01-09T17:41:51.084Z,15.00
2023-01-09T17:44:18.092Z,16.63
2023-01-09T17:46:45.728Z,15.50
2023-01-09T17:49:20.333Z,16.20
2023-01-09T17:51:47.541Z,15.80
2023-01-09T17:54:15.010Z,15.93
2023-01-09T17:56:49.568Z,16.80
2023-01-09T17:59:17.542Z,18.42
2023-01-09T18:01:45.215Z,18.08
2023-01-09T18:04:12.616Z,20.00
2023-01-09T18:06:39.594Z,20.67
2023-01-09T18:09:07.600Z,17.98
2023-01-09T18:11:34.945Z,19.42
2023-01-09T18:14:02.156Z,18.15
2023-01-09T18:16:29.360Z,16.27
2023-01-09T18:18:58.244Z,14.07
2023-01-09T18:21:27.913Z,15.57
2023-01-09T18:23:58.066Z,16.48
2023-01-09T18:26:25.297Z,14.50
2023-01-09T18:28:57.474Z,12.90
2023-01-09T18:31:27.386Z,14.68
2023-01-09T18:33:57.528Z,13.63
2023-01-09T18:36:30.873Z,11.63
2023-01-09T18:39:01.894Z,12.80
2023-01-09T18:41:31.217Z,12.02
2023-01-09T18:44:00.704Z,11.15
2023-01-09T18:46:30.895Z,10.95
2023-01-09T18:49:03.922Z,12.23
2023-01-09T18:51:34.404Z,11.32
2023-01-09T18:54:01.544Z,11.07
2023-01-09T18:56:28.692Z,11.50
2023-01-09T18:58:57.845Z,10.90
2023-01-09T19:01:27.433Z,11.45
2023-01-09T19:03:58.209Z,11.88
2023-01-09T19:06:27.757Z,11.75
2023-01-09T19:08:55.150Z,12.63
2023-01-09T19:11:22.224Z,12.35
2023-01-09T19:13:50.935Z,12.45
2023-01-09T19:16:18.960Z,11.57
2023-01-09T19:18:46.092Z,11.65
2023-01-09T19:21:18.085Z,10.88
2023-01-09T19:23:45.995Z,10.02
2023-01-09T19:26:20.639Z,10.63
2023-01-09T19:28:48.211Z,9.90
2023-01-09T19:31:16.008Z,10.43
2023-01-09T19:33:44.182Z,9.82
2023-01-09T19:36:11.201Z,9.30
2023-01-09T19:38:38.494Z,10.13
2023-01-09T19:41:19.462Z,9.85
2023-01-09T19:43:47.886Z,9.38
2023-01-09T19:46:22.009Z,9.50
2023-01-09T19:51:19.169Z,8.50
2023-01-09T19:53:55.490Z,8.63
2023-01-09T19:56:29.447Z,8.23
2023-01-09T19:59:00.362Z,7.55
2023-01-09T20:01:34.055Z,8.25
2023-01-09T20:04:04.951Z,9.18
2023-01-09T20:06:31.915Z,10.35
2023-01-09T20:09:02.373Z,9.30
2023-01-09T20:11:32.592Z,10.18
2023-01-09T20:13:59.753Z,9.38
2023-01-09T20:16:30.411Z,8.80
2023-01-09T20:19:00.898Z,9.05
2023-01-09T20:21:29.175Z,8.57
2023-01-09T20:23:59.541Z,8.95
2023-01-09T20:26:27.182Z,8.55
2023-01-09T20:28:54.974Z,8.15
2023-01-09T20:31:27.926Z,8.43
2023-01-09T20:33:55.955Z,8.40
2023-01-09T20:36:30.609Z,7.55
2023-01-09T20:39:01.606Z,6.70
2023-01-09T20:41:31.369Z,7.35
2023-01-09T20:44:11.244Z,5.75
2023-01-09T20:46:44.853Z,6.00
2023-01-09T20:49:14.667Z,5.68
2023-01-09T20:51:46.067Z,4.50
2023-01-09T20:54:14.665Z,4.75
2023-01-09T20:56:42.038Z,5.22
2023-01-09T20:59:14.496Z,4.95
2023-01-09T21:01:41.548Z,4.90
2023-01-09T21:04:09.624Z,4.35
2023-01-09T21:06:36.644Z,4.10
2023-01-09T21:09:05.222Z,3.95
2023-01-09T21:11:32.375Z,4.95
2023-01-09T21:13:59.977Z,6.93
2023-01-09T21:16:27.297Z,6.75
2023-01-09T21:18:55.117Z,4.20
2023-01-09T21:21:27.343Z,6.07
2023-01-09T21:23:58.262Z,6.35
2023-01-09T21:26:28.936Z,5.95
2023-01-09T21:28:58.687Z,6.47
2023-01-09T21:31:35.470Z,6.43
2023-01-09T21:34:08.147Z,7.53
2023-01-09T21:36:36.278Z,8.02
2023-01-09T21:39:07.814Z,7.38
2023-01-09T21:41:53.484Z,7.00
2023-01-09T21:44:38.923Z,7.78
2023-01-09T21:47:06.011Z,7.40
2023-01-09T21:49:35.108Z,6.93
2023-01-09T21:52:04.275Z,8.18
2023-01-09T21:54:31.813Z,8.63
2023-01-09T21:56:59.967Z,6.55
2023-01-09T21:59:27.251Z,5.95
2023-01-09T22:01:54.438Z,3.70
2023-01-09T22:04:26.285Z,4.18
2023-01-09T22:06:53.317Z,4.60
2023-01-09T22:09:20.921Z,4.68
2023-01-09T22:11:48.197Z,4.78
2023-01-09T22:14:17.663Z,4.55
2023-01-09T22:16:46.233Z,4.20
2023-01-09T22:19:17.368Z,4.35
2023-01-09T22:21:44.916Z,3.80
2023-01-09T22:24:17.881Z,3.63
2023-01-09T22:26:45.853Z,4.30
2023-01-09T22:29:12.862Z,4.78
2023-01-09T22:31:40.811Z,3.92
2023-01-09T22:34:09.918Z,4.32
2023-01-09T22:36:38.150Z,4.63
2023-01-09T22:39:05.137Z,3.97
2023-01-09T22:41:32.481Z,5.55
2023-01-09T22:43:59.820Z,6.18
2023-01-09T22:46:26.855Z,5.45
2023-01-09T22:48:54.009Z,5.15
2023-01-09T22:51:22.351Z,5.30
2023-01-09T22:53:50.343Z,4.75
2023-01-09T22:56:21.401Z,4.97
2023-01-09T22:58:53.820Z,6.03
2023-01-09T23:01:22.549Z,5.25
2023-01-09T23:03:49.573Z,4.53
2023-01-09T23:06:20.312Z,4.47
2023-01-09T23:08:50.792Z,4.45
2023-01-09T23:11:44.679Z,5.18
2023-01-09T23:14:12.311Z,4.97
2023-01-09T23:16:39.979Z,5.57
2023-01-09T23:19:12.949Z,5.25
2023-01-09T23:21:40.584Z,3.75
2023-01-09T23:24:08.355Z,4.03
2023-01-09T23:26:37.096Z,4.45
2023-01-09T23:29:07.088Z,5.35
2023-01-09T23:31:35.882Z,5.00
2023-01-09T23:34:04.871Z,4.90
2023-01-09T23:36:31.913Z,5.60
2023-01-09T23:38:59.674Z,5.15
2023-01-09T23:41:45.170Z,5.30
2023-01-09T23:44:12.215Z,4.72
2023-01-09T23:46:39.114Z,4.55
2023-01-09T23:49:06.040Z,4.75
2023-01-09T23:51:33.407Z,3.83
2023-01-09T23:54:00.293Z,3.83
2023-01-09T23:56:30.546Z,2.88
2023-01-09T23:58:58.244Z,3.20
